sensor_id;sensor_type;location;lat;lon;timestamp;pressure;altitude;pressure_sealevel;temperature;humidity
77041;BME280;65974;42.664;23.264;2023-06-26T00:01:49;94239.09;;;19.39;80.65
77041;BME280;65974;42.664;23.264;2023-06-26T00:04:15;94237.91;;;19.27;81.41
77041;BME280;65974;42.664;23.264;2023-06-26T00:06:41;94237.91;;;19.27;81.22
77041;BME280;65974;42.664;23.264;2023-06-26T00:09:07;94237.28;;;19.23;81.50
77041;BME280;65974;42.664;23.264;2023-06-26T00:11:32;94239.66;;;19.21;81.37
77041;BME280;65974;42.664;23.264;2023-06-26T00:14:00;94236.78;;;19.16;81.43
77041;BME280;65974;42.664;23.264;2023-06-26T00:16:26;94238.28;;;19.17;81.73
77041;BME280;65974;42.664;23.264;2023-06-26T00:18:53;94235.38;;;19.11;81.53
77041;BME280;65974;42.664;23.264;2023-06-26T00:21:18;94233.13;;;19.10;81.82
77041;BME280;65974;42.664;23.264;2023-06-26T00:23:44;94235.81;;;19.10;82.16
77041;BME280;65974;42.664;23.264;2023-06-26T00:26:11;94236.38;;;19.05;82.13
77041;BME280;65974;42.664;23.264;2023-06-26T00:28:38;94229.56;;;19.00;82.25
77041;BME280;65974;42.664;23.264;2023-06-26T00:31:04;94238.44;;;19.01;82.49
77041;BME280;65974;42.664;23.264;2023-06-26T00:33:30;94228.81;;;19.00;82.54
77041;BME280;65974;42.664;23.264;2023-06-26T00:35:55;94223.72;;;19.02;81.94
77041;BME280;65974;42.664;23.264;2023-06-26T00:38:20;94231.81;;;19.02;82.39
77041;BME280;65974;42.664;23.264;2023-06-26T00:40:48;94219.41;;;19.04;82.29
77041;BME280;65974;42.664;23.264;2023-06-26T00:43:13;94229.44;;;19.04;82.12
77041;BME280;65974;42.664;23.264;2023-06-26T00:45:39;94221.78;;;19.02;82.28
77041;BME280;65974;42.664;23.264;2023-06-26T00:48:05;94228.72;;;19.03;82.15
77041;BME280;65974;42.664;23.264;2023-06-26T00:50:34;94223.53;;;18.96;82.55
77041;BME280;65974;42.664;23.264;2023-06-26T00:52:59;94217.50;;;18.92;82.78
77041;BME280;65974;42.664;23.264;2023-06-26T00:55:27;94216.63;;;18.95;82.79
77041;BME280;65974;42.664;23.264;2023-06-26T00:57:54;94211.34;;;18.92;82.74
77041;BME280;65974;42.664;23.264;2023-06-26T01:00:20;94225.28;;;18.90;82.79
77041;BME280;65974;42.664;23.264;2023-06-26T01:02:46;94211.03;;;18.90;82.88
77041;BME280;65974;42.664;23.264;2023-06-26T01:05:12;94211.03;;;18.90;82.25
77041;BME280;65974;42.664;23.264;2023-06-26T01:07:44;94208.66;;;18.92;82.48
77041;BME280;65974;42.664;23.264;2023-06-26T01:10:10;94199.78;;;18.91;82.68
77041;BME280;65974;42.664;23.264;2023-06-26T01:12:36;94203.13;;;18.95;82.49
77041;BME280;65974;42.664;23.264;2023-06-26T01:15:04;94194.59;;;18.97;81.99
77041;BME280;65974;42.664;23.264;2023-06-26T01:17:29;94199.56;;;18.98;81.68
77041;BME280;65974;42.664;23.264;2023-06-26T01:20:03;94194.16;;;18.98;82.00
77041;BME280;65974;42.664;23.264;2023-06-26T01:28:04;94185.13;;;18.92;81.68
77041;BME280;65974;42.664;23.264;2023-06-26T01:30:37;94183.41;;;18.86;82.28
77041;BME280;65974;42.664;23.264;2023-06-26T01:33:04;94186.09;;;18.86;81.83
77041;BME280;65974;42.664;23.264;2023-06-26T01:35:29;94179.31;;;18.81;81.76
77041;BME280;65974;42.664;23.264;2023-06-26T01:38:18;94177.50;;;18.78;82.12
77041;BME280;65974;42.664;23.264;2023-06-26T01:40:44;94179.53;;;18.74;82.18
77041;BME280;65974;42.664;23.264;2023-06-26T01:43:27;94177.72;;;18.71;82.43
77041;BME280;65974;42.664;23.264;2023-06-26T01:45:58;94177.41;;;18.69;82.51
77041;BME280;65974;42.664;23.264;2023-06-26T01:48:29;94173.94;;;18.69;82.36
77041;BME280;65974;42.664;23.264;2023-06-26T01:50:58;94179.03;;;18.67;82.48
77041;BME280;65974;42.664;23.264;2023-06-26T01:53:29;94175.47;;;18.70;81.92
77041;BME280;65974;42.664;23.264;2023-06-26T01:56:07;94173.50;;;18.70;81.45
77041;BME280;65974;42.664;23.264;2023-06-26T01:58:35;94166.41;;;18.64;81.63
77041;BME280;65974;42.664;23.264;2023-06-26T02:01:02;94173.75;;;18.63;81.63
77041;BME280;65974;42.664;23.264;2023-06-26T02:03:28;94173.13;;;18.59;81.96
77041;BME280;65974;42.664;23.264;2023-06-26T02:05:55;94173.13;;;18.59;81.39
77041;BME280;65974;42.664;23.264;2023-06-26T02:08:20;94167.06;;;18.55;81.43
77041;BME280;65974;42.664;23.264;2023-06-26T02:10:47;94170.97;;;18.54;81.59
77041;BME280;65974;42.664;23.264;2023-06-26T02:13:13;94168.81;;;18.49;81.75
77041;BME280;65974;42.664;23.264;2023-06-26T02:15:39;94165.78;;;18.47;81.68
77041;BME280;65974;42.664;23.264;2023-06-26T02:18:06;94169.44;;;18.40;82.06
77041;BME280;65974;42.664;23.264;2023-06-26T02:20:31;94162.53;;;18.39;82.00
77041;BME280;65974;42.664;23.264;2023-06-26T02:23:00;94164.47;;;18.39;82.08
77041;BME280;65974;42.664;23.264;2023-06-26T02:25:25;94162.22;;;18.37;82.28
77041;BME280;65974;42.664;23.264;2023-06-26T02:27:51;94162.94;;;18.38;82.41
77041;BME280;65974;42.664;23.264;2023-06-26T02:30:20;94166.84;;;18.37;82.46
77041;BME280;65974;42.664;23.264;2023-06-26T02:32:47;94171.28;;;18.31;81.97
77041;BME280;65974;42.664;23.264;2023-06-26T02:35:13;94173.09;;;18.34;82.26
77041;BME280;65974;42.664;23.264;2023-06-26T02:37:38;94169.34;;;18.31;82.31
77041;BME280;65974;42.664;23.264;2023-06-26T02:40:04;94169.34;;;18.31;82.32
77041;BME280;65974;42.664;23.264;2023-06-26T02:42:31;94170.97;;;18.29;81.88
77041;BME280;65974;42.664;23.264;2023-06-26T02:44:57;94177.84;;;18.30;81.98
77041;BME280;65974;42.664;23.264;2023-06-26T02:47:23;94173.22;;;18.30;81.84
77041;BME280;65974;42.664;23.264;2023-06-26T02:49:49;94169.34;;;18.31;81.96
77041;BME280;65974;42.664;23.264;2023-06-26T02:52:15;94177.09;;;18.29;82.05
77041;BME280;65974;42.664;23.264;2023-06-26T02:54:40;94169.75;;;18.30;81.67
77041;BME280;65974;42.664;23.264;2023-06-26T02:57:06;94171.28;;;18.31;81.75
77041;BME280;65974;42.664;23.264;2023-06-26T02:59:32;94176.03;;;18.27;82.02
77041;BME280;65974;42.664;23.264;2023-06-26T03:01:58;94173.44;;;18.23;82.10
77041;BME280;65974;42.664;23.264;2023-06-26T03:04:24;94173.53;;;18.20;82.21
77041;BME280;65974;42.664;23.264;2023-06-26T03:06:49;94167.84;;;18.18;81.96
77041;BME280;65974;42.664;23.264;2023-06-26T03:09:15;94173.22;;;18.18;81.97
77041;BME280;65974;42.664;23.264;2023-06-26T03:11:41;94174.84;;;18.15;82.05
77041;BME280;65974;42.664;23.264;2023-06-26T03:14:07;94173.66;;;18.16;82.29
77041;BME280;65974;42.664;23.264;2023-06-26T03:16:32;94180.22;;;18.15;82.13
77041;BME280;65974;42.664;23.264;2023-06-26T03:19:01;94180.03;;;18.10;82.26
77041;BME280;65974;42.664;23.264;2023-06-26T03:21:26;94177.22;;;18.13;82.20
77041;BME280;65974;42.664;23.264;2023-06-26T03:23:51;94173.44;;;18.11;82.55
77041;BME280;65974;42.664;23.264;2023-06-26T03:26:17;94175.69;;;18.12;82.70
77041;BME280;65974;42.664;23.264;2023-06-26T03:28:43;94183.69;;;18.16;82.56
77041;BME280;65974;42.664;23.264;2023-06-26T03:31:09;94175.91;;;18.18;82.30
77041;BME280;65974;42.664;23.264;2023-06-26T03:33:34;94181.31;;;18.18;82.47
77041;BME280;65974;42.664;23.264;2023-06-26T03:36:00;94185.81;;;18.21;82.74
77041;BME280;65974;42.664;23.264;2023-06-26T03:38:26;94190.38;;;18.24;82.32
77041;BME280;65974;42.664;23.264;2023-06-26T03:40:52;94187.88;;;18.29;82.01
77041;BME280;65974;42.664;23.264;2023-06-26T03:43:18;94190.16;;;18.31;82.06
77041;BME280;65974;42.664;23.264;2023-06-26T03:45:43;94189.28;;;18.34;82.02
77041;BME280;65974;42.664;23.264;2023-06-26T03:48:09;94187.34;;;18.34;82.09
77041;BME280;65974;42.664;23.264;2023-06-26T03:50:35;94183.88;;;18.34;82.10
77041;BME280;65974;42.664;23.264;2023-06-26T03:53:00;94180.34;;;18.37;81.61
77041;BME280;65974;42.664;23.264;2023-06-26T03:55:27;94177.19;;;18.38;81.41
77041;BME280;65974;42.664;23.264;2023-06-26T03:57:52;94175.25;;;18.39;81.25
77041;BME280;65974;42.664;23.264;2023-06-26T04:00:18;94176.44;;;18.38;81.35
77041;BME280;65974;42.664;23.264;2023-06-26T04:02:46;94178.41;;;18.37;81.33
77041;BME280;65974;42.664;23.264;2023-06-26T04:05:11;94173.66;;;18.41;81.64
77041;BME280;65974;42.664;23.264;2023-06-26T04:07:39;94190.59;;;18.42;81.39
77041;BME280;65974;42.664;23.264;2023-06-26T04:10:06;94177.44;;;18.44;81.25
77041;BME280;65974;42.664;23.264;2023-06-26T04:12:31;94187.78;;;18.45;81.24
77041;BME280;65974;42.664;23.264;2023-06-26T04:14:57;94185.09;;;18.45;81.05
77041;BME280;65974;42.664;23.264;2023-06-26T04:17:22;94188.13;;;18.47;81.41
77041;BME280;65974;42.664;23.264;2023-06-26T04:19:48;94177.66;;;18.49;81.17
77041;BME280;65974;42.664;23.264;2023-06-26T04:22:13;94178.72;;;18.52;80.74
77041;BME280;65974;42.664;23.264;2023-06-26T04:24:40;94176.47;;;18.50;81.15
77041;BME280;65974;42.664;23.264;2023-06-26T04:27:05;94188.63;;;18.55;80.58
77041;BME280;65974;42.664;23.264;2023-06-26T04:29:32;94190.91;;;18.56;80.50
77041;BME280;65974;42.664;23.264;2023-06-26T04:31:59;94194.34;;;18.57;80.80
77041;BME280;65974;42.664;23.264;2023-06-26T04:34:27;94195.34;;;18.63;80.58
77041;BME280;65974;42.664;23.264;2023-06-26T04:36:53;94185.28;;;18.64;80.35
77041;BME280;65974;42.664;23.264;2023-06-26T04:39:18;94190.91;;;18.69;80.08
77041;BME280;65974;42.664;23.264;2023-06-26T04:41:45;94205.66;;;18.77;80.38
77041;BME280;65974;42.664;23.264;2023-06-26T04:44:10;94195.94;;;18.80;80.12
77041;BME280;65974;42.664;23.264;2023-06-26T04:46:37;94202.31;;;18.86;79.92
77041;BME280;65974;42.664;23.264;2023-06-26T04:49:06;94205.41;;;18.97;79.98
77041;BME280;65974;42.664;23.264;2023-06-26T04:51:31;94202.44;;;19.04;79.74
77041;BME280;65974;42.664;23.264;2023-06-26T04:53:57;94194.13;;;19.11;79.68
77041;BME280;65974;42.664;23.264;2023-06-26T04:56:22;94198.09;;;19.19;78.90
77041;BME280;65974;42.664;23.264;2023-06-26T04:58:48;94196.34;;;19.25;79.16
77041;BME280;65974;42.664;23.264;2023-06-26T05:01:13;94193.97;;;19.27;78.83
77041;BME280;65974;42.664;23.264;2023-06-26T05:03:39;94197.00;;;19.29;78.97
77041;BME280;65974;42.664;23.264;2023-06-26T05:06:05;94189.88;;;19.22;79.28
77041;BME280;65974;42.664;23.264;2023-06-26T05:08:31;94189.63;;;19.08;79.23
77041;BME280;65974;42.664;23.264;2023-06-26T05:10:56;94208.06;;;19.09;79.40
77041;BME280;65974;42.664;23.264;2023-06-26T05:13:27;94201.72;;;19.03;78.96
77041;BME280;65974;42.664;23.264;2023-06-26T05:15:53;94200.19;;;19.02;78.69
77041;BME280;65974;42.664;23.264;2023-06-26T05:18:21;94201.31;;;18.92;78.73
77041;BME280;65974;42.664;23.264;2023-06-26T05:20:50;94209.28;;;18.96;79.46
77041;BME280;65974;42.664;23.264;2023-06-26T05:23:16;94215.53;;;19.05;79.53
77041;BME280;65974;42.664;23.264;2023-06-26T05:26:03;94210.31;;;19.11;79.47
77041;BME280;65974;42.664;23.264;2023-06-26T05:28:33;94213.56;;;19.18;78.95
77041;BME280;65974;42.664;23.264;2023-06-26T05:31:01;94213.91;;;19.08;78.51
77041;BME280;65974;42.664;23.264;2023-06-26T05:33:30;94211.31;;;19.04;79.21
77041;BME280;65974;42.664;23.264;2023-06-26T05:35:59;94210.31;;;19.11;79.24
77041;BME280;65974;42.664;23.264;2023-06-26T05:41:22;94226.44;;;19.02;79.07
77041;BME280;65974;42.664;23.264;2023-06-26T05:43:50;94219.22;;;18.99;79.78
77041;BME280;65974;42.664;23.264;2023-06-26T05:46:28;94208.22;;;18.93;79.61
77041;BME280;65974;42.664;23.264;2023-06-26T05:48:59;94220.94;;;19.05;79.10
77041;BME280;65974;42.664;23.264;2023-06-26T05:51:35;94218.88;;;19.09;79.37
77041;BME280;65974;42.664;23.264;2023-06-26T05:54:25;94211.72;;;19.15;79.08
77041;BME280;65974;42.664;23.264;2023-06-26T06:00:30;94216.88;;;19.35;78.81
77041;BME280;65974;42.664;23.264;2023-06-26T06:02:58;94226.09;;;19.47;77.81
77041;BME280;65974;42.664;23.264;2023-06-26T06:05:24;94223.59;;;19.52;77.42
77041;BME280;65974;42.664;23.264;2023-06-26T06:07:50;94228.63;;;19.63;77.21
77041;BME280;65974;42.664;23.264;2023-06-26T06:10:15;94217.25;;;19.68;77.20
77041;BME280;65974;42.664;23.264;2023-06-26T06:12:59;94221.63;;;19.74;77.29
77041;BME280;65974;42.664;23.264;2023-06-26T06:15:32;94218.00;;;19.68;76.73
77041;BME280;65974;42.664;23.264;2023-06-26T06:18:17;94219.06;;;19.71;76.94
77041;BME280;65974;42.664;23.264;2023-06-26T06:20:51;94212.59;;;19.68;76.72
77041;BME280;65974;42.664;23.264;2023-06-26T06:23:22;94220.47;;;19.75;76.45
77041;BME280;65974;42.664;23.264;2023-06-26T06:25:48;94224.66;;;19.76;76.25
77041;BME280;65974;42.664;23.264;2023-06-26T06:28:14;94226.63;;;19.76;76.67
77041;BME280;65974;42.664;23.264;2023-06-26T06:30:41;94221.22;;;19.76;76.80
77041;BME280;65974;42.664;23.264;2023-06-26T06:33:07;94219.91;;;19.80;75.92
77041;BME280;65974;42.664;23.264;2023-06-26T06:35:41;94218.06;;;19.77;75.54
77041;BME280;65974;42.664;23.264;2023-06-26T06:38:16;94217.63;;;19.79;75.42
77041;BME280;65974;42.664;23.264;2023-06-26T06:40:42;94208.94;;;19.84;75.44
77041;BME280;65974;42.664;23.264;2023-06-26T06:43:41;94207.53;;;20.01;75.11
77041;BME280;65974;42.664;23.264;2023-06-26T06:46:11;94205.78;;;20.07;74.07
77041;BME280;65974;42.664;23.264;2023-06-26T06:48:41;94214.81;;;20.13;74.36
77041;BME280;65974;42.664;23.264;2023-06-26T06:51:19;94210.91;;;20.14;74.05
77041;BME280;65974;42.664;23.264;2023-06-26T06:57:04;94217.03;;;20.36;72.19
77041;BME280;65974;42.664;23.264;2023-06-26T06:59:38;94198.16;;;20.45;73.07
77041;BME280;65974;42.664;23.264;2023-06-26T07:02:09;94210.06;;;20.57;71.20
77041;BME280;65974;42.664;23.264;2023-06-26T07:04:37;94218.50;;;20.59;70.60
77041;BME280;65974;42.664;23.264;2023-06-26T07:07:03;94202.25;;;20.59;70.63
77041;BME280;65974;42.664;23.264;2023-06-26T07:09:29;94200.78;;;20.67;71.67
77041;BME280;65974;42.664;23.264;2023-06-26T07:11:54;94212.06;;;20.65;71.44
77041;BME280;65974;42.664;23.264;2023-06-26T07:14:21;94204.84;;;20.71;72.34
77041;BME280;65974;42.664;23.264;2023-06-26T07:16:49;94199.28;;;20.75;71.82
77041;BME280;65974;42.664;23.264;2023-06-26T07:19:15;94199.13;;;20.78;71.21
77041;BME280;65974;42.664;23.264;2023-06-26T07:21:59;94211.03;;;20.81;70.13
77041;BME280;65974;42.664;23.264;2023-06-26T07:24:24;94202.47;;;20.82;69.21
77041;BME280;65974;42.664;23.264;2023-06-26T07:26:50;94202.03;;;20.84;69.24
77041;BME280;65974;42.664;23.264;2023-06-26T07:29:15;94200.22;;;20.90;68.74
77041;BME280;65974;42.664;23.264;2023-06-26T07:31:41;94199.19;;;20.97;68.73
77041;BME280;65974;42.664;23.264;2023-06-26T07:34:06;94192.75;;;21.03;66.81
77041;BME280;65974;42.664;23.264;2023-06-26T07:36:33;94194.72;;;21.12;67.92
77041;BME280;65974;42.664;23.264;2023-06-26T07:38:59;94207.50;;;21.20;68.07
77041;BME280;65974;42.664;23.264;2023-06-26T07:41:24;94198.78;;;21.25;67.53
77041;BME280;65974;42.664;23.264;2023-06-26T07:43:50;94212.50;;;21.31;66.41
77041;BME280;65974;42.664;23.264;2023-06-26T07:46:15;94206.59;;;21.32;65.89
77041;BME280;65974;42.664;23.264;2023-06-26T07:48:40;94198.94;;;21.40;65.82
77041;BME280;65974;42.664;23.264;2023-06-26T07:51:06;94207.34;;;21.51;65.53
77041;BME280;65974;42.664;23.264;2023-06-26T07:53:33;94207.06;;;21.49;64.93
77041;BME280;65974;42.664;23.264;2023-06-26T07:55:59;94203.44;;;21.43;64.75
77041;BME280;65974;42.664;23.264;2023-06-26T07:58:25;94205.88;;;21.50;65.91
77041;BME280;65974;42.664;23.264;2023-06-26T08:00:51;94201.19;;;21.59;65.02
77041;BME280;65974;42.664;23.264;2023-06-26T08:03:16;94193.81;;;21.69;64.03
77041;BME280;65974;42.664;23.264;2023-06-26T08:05:42;94201.31;;;21.83;64.35
77041;BME280;65974;42.664;23.264;2023-06-26T08:08:07;94197.72;;;21.86;63.68
77041;BME280;65974;42.664;23.264;2023-06-26T08:10:33;94201.19;;;21.87;64.13
77041;BME280;65974;42.664;23.264;2023-06-26T08:12:59;94199.66;;;21.86;64.66
77041;BME280;65974;42.664;23.264;2023-06-26T08:15:24;94202.22;;;21.89;62.71
77041;BME280;65974;42.664;23.264;2023-06-26T08:17:50;94199.38;;;21.93;63.02
77041;BME280;65974;42.664;23.264;2023-06-26T08:20:16;94203.56;;;21.94;62.20
77041;BME280;65974;42.664;23.264;2023-06-26T08:22:42;94202.84;;;21.93;63.43
77041;BME280;65974;42.664;23.264;2023-06-26T08:25:07;94199.22;;;21.87;63.81
77041;BME280;65974;42.664;23.264;2023-06-26T08:27:33;94204.63;;;21.78;62.45
77041;BME280;65974;42.664;23.264;2023-06-26T08:29:58;94204.03;;;21.74;62.19
77041;BME280;65974;42.664;23.264;2023-06-26T08:32:24;94195.31;;;21.88;62.43
77041;BME280;65974;42.664;23.264;2023-06-26T08:34:50;94204.16;;;21.98;62.43
77041;BME280;65974;42.664;23.264;2023-06-26T08:37:16;94198.31;;;21.90;61.37
77041;BME280;65974;42.664;23.264;2023-06-26T08:39:41;94199.50;;;21.89;60.84
77041;BME280;65974;42.664;23.264;2023-06-26T08:42:07;94197.13;;;21.91;61.11
77041;BME280;65974;42.664;23.264;2023-06-26T08:44:34;94199.22;;;21.87;60.86
77041;BME280;65974;42.664;23.264;2023-06-26T08:47:00;94204.63;;;21.87;60.64
77041;BME280;65974;42.664;23.264;2023-06-26T08:52:24;94210.34;;;21.98;60.39
77041;BME280;65974;42.664;23.264;2023-06-26T08:54:58;94207.91;;;22.00;60.23
77041;BME280;65974;42.664;23.264;2023-06-26T08:57:26;94205.38;;;22.06;59.51
77041;BME280;65974;42.664;23.264;2023-06-26T08:59:54;94201.56;;;22.12;59.45
77041;BME280;65974;42.664;23.264;2023-06-26T09:02:20;94204.72;;;22.20;59.41
77041;BME280;65974;42.664;23.264;2023-06-26T09:04:49;94200.31;;;22.31;59.11
77041;BME280;65974;42.664;23.264;2023-06-26T09:07:16;94203.56;;;22.45;59.41
77041;BME280;65974;42.664;23.264;2023-06-26T09:09:41;94199.13;;;22.56;59.22
77041;BME280;65974;42.664;23.264;2023-06-26T09:12:08;94190.47;;;22.76;58.50
77041;BME280;65974;42.664;23.264;2023-06-26T09:14:34;94183.00;;;22.85;57.12
77041;BME280;65974;42.664;23.264;2023-06-26T09:17:00;94199.88;;;22.89;56.69
77041;BME280;65974;42.664;23.264;2023-06-26T09:19:26;94200.53;;;22.84;57.12
77041;BME280;65974;42.664;23.264;2023-06-26T09:21:52;94200.75;;;22.72;57.02
77041;BME280;65974;42.664;23.264;2023-06-26T09:24:18;94201.09;;;22.65;56.73
77041;BME280;65974;42.664;23.264;2023-06-26T09:26:44;94202.59;;;22.66;57.79
77041;BME280;65974;42.664;23.264;2023-06-26T09:29:10;94200.50;;;22.61;57.72
77041;BME280;65974;42.664;23.264;2023-06-26T09:31:39;94196.72;;;22.58;57.58
77041;BME280;65974;42.664;23.264;2023-06-26T09:34:05;94195.66;;;22.65;58.20
77041;BME280;65974;42.664;23.264;2023-06-26T09:36:33;94194.00;;;22.58;56.50
77041;BME280;65974;42.664;23.264;2023-06-26T09:39:07;94190.25;;;22.56;55.71
77041;BME280;65974;42.664;23.264;2023-06-26T09:41:45;94197.78;;;22.61;56.20
77041;BME280;65974;42.664;23.264;2023-06-26T09:44:14;94197.09;;;22.75;57.60
77041;BME280;65974;42.664;23.264;2023-06-26T09:46:40;94195.19;;;22.66;53.96
77041;BME280;65974;42.664;23.264;2023-06-26T09:49:09;94194.91;;;22.64;53.96
77041;BME280;65974;42.664;23.264;2023-06-26T09:51:39;94195.03;;;22.70;54.15
77041;BME280;65974;42.664;23.264;2023-06-26T09:54:06;94187.75;;;22.76;53.50
77041;BME280;65974;42.664;23.264;2023-06-26T09:56:50;94194.63;;;22.86;54.97
77041;BME280;65974;42.664;23.264;2023-06-26T09:59:18;94185.09;;;22.90;54.27
77041;BME280;65974;42.664;23.264;2023-06-26T10:01:45;94189.78;;;22.90;54.65
77041;BME280;65974;42.664;23.264;2023-06-26T10:04:11;94188.69;;;22.96;54.86
77041;BME280;65974;42.664;23.264;2023-06-26T10:06:46;94185.97;;;22.96;53.95
77041;BME280;65974;42.664;23.264;2023-06-26T10:09:17;94186.25;;;22.98;52.89
77041;BME280;65974;42.664;23.264;2023-06-26T10:12:07;94185.72;;;23.09;52.28
77041;BME280;65974;42.664;23.264;2023-06-26T10:14:35;94186.78;;;23.11;52.74
77041;BME280;65974;42.664;23.264;2023-06-26T10:17:09;94184.25;;;23.08;51.11
77041;BME280;65974;42.664;23.264;2023-06-26T10:19:39;94183.53;;;23.22;53.30
77041;BME280;65974;42.664;23.264;2023-06-26T10:22:07;94187.06;;;23.37;52.09
77041;BME280;65974;42.664;23.264;2023-06-26T10:24:35;94182.59;;;23.49;50.52
77041;BME280;65974;42.664;23.264;2023-06-26T10:29:36;94179.53;;;23.70;51.84
77041;BME280;65974;42.664;23.264;2023-06-26T10:32:03;94176.16;;;23.75;50.82
77041;BME280;65974;42.664;23.264;2023-06-26T10:34:30;94179.34;;;23.88;52.18
77041;BME280;65974;42.664;23.264;2023-06-26T10:36:59;94181.13;;;23.91;51.56
77041;BME280;65974;42.664;23.264;2023-06-26T10:39:26;94184.31;;;23.90;51.67
77041;BME280;65974;42.664;23.264;2023-06-26T10:41:54;94175.41;;;23.89;51.62
77041;BME280;65974;42.664;23.264;2023-06-26T10:44:21;94178.41;;;23.77;49.81
77041;BME280;65974;42.664;23.264;2023-06-26T10:46:55;94185.34;;;23.78;49.55
77041;BME280;65974;42.664;23.264;2023-06-26T10:49:29;94178.59;;;23.73;48.70
77041;BME280;65974;42.664;23.264;2023-06-26T10:51:55;94176.81;;;23.70;49.32
77041;BME280;65974;42.664;23.264;2023-06-26T10:54:28;94181.41;;;23.79;49.46
77041;BME280;65974;42.664;23.264;2023-06-26T10:56:55;94176.84;;;23.85;48.77
77041;BME280;65974;42.664;23.264;2023-06-26T10:59:25;94169.41;;;23.85;49.53
77041;BME280;65974;42.664;23.264;2023-06-26T11:01:58;94167.53;;;23.91;49.69
77041;BME280;65974;42.664;23.264;2023-06-26T11:04:47;94168.66;;;24.00;49.90
77041;BME280;65974;42.664;23.264;2023-06-26T11:12:44;94172.03;;;23.95;49.50
77041;BME280;65974;42.664;23.264;2023-06-26T11:15:14;94183.47;;;23.84;50.17
77041;BME280;65974;42.664;23.264;2023-06-26T11:17:42;94176.34;;;23.86;49.60
77041;BME280;65974;42.664;23.264;2023-06-26T11:20:12;94171.63;;;23.72;49.31
77041;BME280;65974;42.664;23.264;2023-06-26T11:22:40;94175.09;;;23.58;49.47
77041;BME280;65974;42.664;23.264;2023-06-26T11:25:06;94178.47;;;23.53;50.36
77041;BME280;65974;42.664;23.264;2023-06-26T11:27:38;94171.72;;;23.49;50.72
77041;BME280;65974;42.664;23.264;2023-06-26T11:30:05;94167.50;;;23.48;50.50
77041;BME280;65974;42.664;23.264;2023-06-26T11:32:31;94177.44;;;23.51;49.45
77041;BME280;65974;42.664;23.264;2023-06-26T11:34:58;94169.47;;;23.62;49.26
77041;BME280;65974;42.664;23.264;2023-06-26T11:37:25;94174.47;;;23.63;49.06
77041;BME280;65974;42.664;23.264;2023-06-26T11:39:52;94173.63;;;23.72;48.22
77041;BME280;65974;42.664;23.264;2023-06-26T11:42:18;94162.84;;;23.77;48.94
77041;BME280;65974;42.664;23.264;2023-06-26T11:44:47;94160.97;;;23.83;49.23
77041;BME280;65974;42.664;23.264;2023-06-26T11:47:18;94169.13;;;23.83;49.15
77041;BME280;65974;42.664;23.264;2023-06-26T11:49:45;94170.34;;;23.82;49.82
77041;BME280;65974;42.664;23.264;2023-06-26T11:52:13;94163.13;;;23.79;49.81
77041;BME280;65974;42.664;23.264;2023-06-26T11:54:42;94169.78;;;23.78;49.67
77041;BME280;65974;42.664;23.264;2023-06-26T11:57:08;94162.84;;;23.77;49.44
77041;BME280;65974;42.664;23.264;2023-06-26T11:59:40;94156.63;;;23.91;49.75
77041;BME280;65974;42.664;23.264;2023-06-26T12:02:07;94159.28;;;24.30;46.64
77041;BME280;65974;42.664;23.264;2023-06-26T12:04:34;94159.81;;;24.48;47.58
77041;BME280;65974;42.664;23.264;2023-06-26T12:07:01;94153.34;;;24.81;48.22
77041;BME280;65974;42.664;23.264;2023-06-26T12:09:43;94148.16;;;25.03;47.37
77041;BME280;65974;42.664;23.264;2023-06-26T12:12:10;94151.88;;;25.00;47.18
77041;BME280;65974;42.664;23.264;2023-06-26T12:14:43;94141.69;;;25.00;46.05
77041;BME280;65974;42.664;23.264;2023-06-26T12:17:11;94152.31;;;24.98;45.74
77041;BME280;65974;42.664;23.264;2023-06-26T12:19:49;94148.50;;;25.51;44.72
77041;BME280;65974;42.664;23.264;2023-06-26T12:22:16;94151.28;;;25.82;44.11
77041;BME280;65974;42.664;23.264;2023-06-26T12:24:42;94151.69;;;26.00;43.91
77041;BME280;65974;42.664;23.264;2023-06-26T12:27:14;94151.19;;;26.59;41.27
77041;BME280;65974;42.664;23.264;2023-06-26T12:29:45;94150.81;;;26.40;41.86
77041;BME280;65974;42.664;23.264;2023-06-26T12:32:12;94151.22;;;26.02;42.78
77041;BME280;65974;42.664;23.264;2023-06-26T12:34:46;94149.16;;;25.91;42.43
77041;BME280;65974;42.664;23.264;2023-06-26T12:37:15;94150.53;;;25.81;43.29
77041;BME280;65974;42.664;23.264;2023-06-26T12:39:46;94156.44;;;25.49;44.36
77041;BME280;65974;42.664;23.264;2023-06-26T12:42:33;94155.59;;;25.22;44.66
77041;BME280;65974;42.664;23.264;2023-06-26T12:44:58;94150.44;;;25.04;45.52
77041;BME280;65974;42.664;23.264;2023-06-26T12:47:25;94151.78;;;24.94;45.88
77041;BME280;65974;42.664;23.264;2023-06-26T12:49:52;94152.66;;;24.86;45.63
77041;BME280;65974;42.664;23.264;2023-06-26T12:52:18;94155.06;;;24.78;45.88
77041;BME280;65974;42.664;23.264;2023-06-26T12:54:45;94154.19;;;24.72;46.27
77041;BME280;65974;42.664;23.264;2023-06-26T12:57:13;94157.28;;;24.80;46.92
77041;BME280;65974;42.664;23.264;2023-06-26T12:59:39;94150.81;;;24.77;47.36
77041;BME280;65974;42.664;23.264;2023-06-26T13:02:05;94154.66;;;24.85;47.53
77041;BME280;65974;42.664;23.264;2023-06-26T13:04:31;94144.03;;;24.87;46.62
77041;BME280;65974;42.664;23.264;2023-06-26T13:06:58;94132.03;;;24.99;47.40
77041;BME280;65974;42.664;23.264;2023-06-26T13:09:25;94146.63;;;25.16;48.62
77041;BME280;65974;42.664;23.264;2023-06-26T13:11:52;94143.53;;;25.29;48.72
77041;BME280;65974;42.664;23.264;2023-06-26T13:14:20;94145.47;;;25.69;47.66
77041;BME280;65974;42.664;23.264;2023-06-26T13:16:46;94145.72;;;25.71;47.65
77041;BME280;65974;42.664;23.264;2023-06-26T13:19:12;94150.13;;;26.14;47.79
77041;BME280;65974;42.664;23.264;2023-06-26T13:21:41;94145.16;;;26.49;46.55